createdAt,value
2023-05-04T00:01:39.550Z,96906.84
2023-05-04T00:04:15.781Z,96874.44
2023-05-04T00:06:47.538Z,96893.25
2023-05-04T00:09:17.653Z,96890.31
2023-05-04T00:11:47.990Z,96822.38
2023-05-04T00:14:16.210Z,96887.47
2023-05-04T00:16:44.488Z,96884.50
2023-05-04T00:19:12.467Z,96878.94
2023-05-04T00:21:45.812Z,96712.47
2023-05-04T00:24:14.352Z,96835.19
2023-05-04T00:26:47.646Z,96879.00
2023-05-04T00:29:15.735Z,96874.78
2023-05-04T00:31:44.043Z,96871.53
2023-05-04T00:34:15.891Z,96868.09
2023-05-04T00:36:44.121Z,96868.84
2023-05-04T00:39:16.299Z,96863.53
2023-05-04T00:41:46.059Z,96862.72
2023-05-04T00:44:15.017Z,96859.13
2023-05-04T00:46:43.349Z,96864.16
2023-05-04T00:49:15.166Z,96868.88
2023-05-04T00:51:43.415Z,96781.53
2023-05-04T00:54:12.691Z,96866.78
2023-05-04T00:56:45.770Z,96868.94
2023-05-04T00:59:15.494Z,96872.16
2023-05-04T01:01:46.736Z,96865.19
2023-05-04T01:04:19.838Z,96861.19
2023-05-04T01:06:54.555Z,96865.22
2023-05-04T01:09:26.419Z,96794.81
2023-05-04T01:12:00.346Z,96868.97
2023-05-04T01:14:41.231Z,96866.31
2023-05-04T01:17:09.843Z,96874.81
2023-05-04T01:19:37.869Z,96754.47
2023-05-04T01:22:14.415Z,96867.59
2023-05-04T01:24:42.241Z,96825.09
2023-05-04T01:27:14.516Z,96860.47
2023-05-04T01:29:49.295Z,96870.03
2023-05-04T01:32:21.063Z,96864.47
2023-05-04T01:34:52.263Z,96795.91
2023-05-04T01:37:23.855Z,96864.47
2023-05-04T01:39:54.737Z,96743.88
2023-05-04T01:42:22.908Z,96866.56
2023-05-04T01:44:52.020Z,96859.66
2023-05-04T01:47:23.516Z,96863.91
2023-05-04T01:49:51.962Z,96827.00
2023-05-04T01:52:21.908Z,96859.16
2023-05-04T01:54:58.683Z,96863.41
2023-05-04T01:57:27.051Z,96869.78
2023-05-04T01:59:59.726Z,96821.94
2023-05-04T02:02:30.615Z,96860.50
2023-05-04T02:05:00.322Z,96854.63
2023-05-04T02:07:30.060Z,96859.16
2023-05-04T02:09:58.211Z,96858.63
2023-05-04T02:12:31.434Z,96814.50
2023-05-04T02:14:59.322Z,96859.69
2023-05-04T02:17:27.169Z,96852.53
2023-05-04T02:19:55.571Z,96848.50
2023-05-04T02:22:26.543Z,96732.66
2023-05-04T02:24:56.596Z,96809.97
2023-05-04T02:27:28.362Z,96897.94
2023-05-04T02:29:58.708Z,96848.78
2023-05-04T02:32:27.650Z,96782.88
2023-05-04T02:34:56.156Z,96850.13
2023-05-04T02:37:29.667Z,96851.72
2023-05-04T02:40:04.974Z,96858.88
2023-05-04T02:42:33.622Z,96848.50
2023-05-04T02:45:01.887Z,96851.72
2023-05-04T02:47:32.858Z,96847.44
2023-05-04T02:50:05.001Z,96818.47
2023-05-04T02:52:46.529Z,96852.50
2023-05-04T02:55:21.475Z,96852.25
2023-05-04T02:57:52.227Z,96807.56
2023-05-04T03:00:20.381Z,96851.13
2023-05-04T03:03:05.622Z,96851.44
2023-05-04T03:05:37.065Z,96712.53
2023-05-04T03:08:06.813Z,96820.84
2023-05-04T03:10:38.084Z,96850.66
2023-05-04T03:13:06.388Z,96856.75
2023-05-04T03:15:34.783Z,96859.94
2023-05-04T03:18:02.991Z,96860.19
2023-05-04T03:20:31.320Z,96828.06
2023-05-04T03:22:59.159Z,96852.22
2023-05-04T03:25:29.579Z,96854.38
2023-05-04T03:28:01.787Z,96851.16
2023-05-04T03:30:29.805Z,96845.59
2023-05-04T03:32:58.704Z,96850.88
2023-05-04T03:35:27.434Z,96845.59
2023-05-04T03:37:55.240Z,96842.38
2023-05-04T03:40:24.364Z,96841.84
2023-05-04T03:42:59.208Z,96843.72
2023-05-04T03:45:32.932Z,96830.72
2023-05-04T03:48:03.701Z,96833.38
2023-05-04T03:50:31.853Z,96832.84
2023-05-04T03:53:00.265Z,96833.91
2023-05-04T03:55:29.223Z,96832.56
2023-05-04T03:57:57.455Z,96790.59
2023-05-04T04:00:25.955Z,96834.69
2023-05-04T04:02:56.099Z,96834.69
2023-05-04T04:05:30.396Z,96835.75
2023-05-04T04:08:01.582Z,96826.75
2023-05-04T04:10:30.030Z,96799.09
2023-05-04T04:12:58.301Z,96826.97
2023-05-04T04:15:27.382Z,96828.31
2023-05-04T04:17:57.070Z,96828.31
2023-05-04T04:20:29.345Z,96826.44
2023-05-04T04:23:02.052Z,96765.66
2023-05-04T04:25:30.398Z,96821.94
2023-05-04T04:27:58.623Z,96789.53
2023-05-04T04:30:26.951Z,96809.19
2023-05-04T04:33:03.726Z,96730.03
2023-05-04T04:35:37.411Z,96813.94
2023-05-04T04:38:08.218Z,96803.34
2023-05-04T04:40:36.061Z,96817.16
2023-05-04T04:43:05.087Z,96808.94
2023-05-04T04:45:43.935Z,96815.56
2023-05-04T04:48:13.464Z,96815.53
2023-05-04T04:50:41.801Z,96817.69
2023-05-04T04:53:13.341Z,96816.09
2023-05-04T04:55:42.210Z,96808.66
2023-05-04T04:58:11.144Z,96802.81
2023-05-04T05:00:45.030Z,96816.31
2023-05-04T05:03:16.556Z,96813.41
2023-05-04T05:05:45.185Z,96798.00
2023-05-04T05:08:15.593Z,96814.47
2023-05-04T05:10:50.614Z,96804.16
2023-05-04T05:13:25.459Z,96810.53
2023-05-04T05:15:53.958Z,96770.41
2023-05-04T05:18:24.975Z,96812.91
2023-05-04T05:20:53.148Z,96808.16
2023-05-04T05:23:25.101Z,96808.66
2023-05-04T05:25:54.785Z,96810.78
2023-05-04T05:28:28.483Z,96813.72
2023-05-04T05:30:58.371Z,96802.00
2023-05-04T05:33:28.198Z,96805.44
2023-05-04T05:35:57.143Z,96805.97
2023-05-04T05:38:29.757Z,96816.03
2023-05-04T05:41:12.779Z,96776.59
2023-05-04T05:43:51.764Z,96809.34
2023-05-04T05:46:23.146Z,96771.91
2023-05-04T05:48:59.518Z,96808.31
2023-05-04T05:51:31.301Z,96812.66
2023-05-04T05:54:02.482Z,96810.53
2023-05-04T05:56:33.143Z,96818.44
2023-05-04T05:59:03.605Z,96819.69
2023-05-04T06:01:32.310Z,96807.06
2023-05-04T06:04:02.384Z,96809.78
2023-05-04T06:06:33.333Z,96812.81
2023-05-04T06:09:09.545Z,96793.47
2023-05-04T06:11:42.183Z,96803.63
2023-05-04T06:14:12.628Z,96799.75
2023-05-04T06:16:41.408Z,96796.91
2023-05-04T06:19:14.093Z,96791.59
2023-05-04T06:22:04.606Z,96781.69
2023-05-04T06:24:36.719Z,96796.34
2023-05-04T06:27:05.390Z,96797.78
2023-05-04T06:29:33.878Z,96803.06
2023-05-04T06:32:05.431Z,96804.84
2023-05-04T06:34:35.399Z,96799.44
2023-05-04T06:37:06.109Z,96800.28
2023-05-04T06:39:34.747Z,96758.53
2023-05-04T06:42:04.510Z,96796.66
2023-05-04T06:44:46.579Z,96795.19
2023-05-04T06:47:16.826Z,96788.72
2023-05-04T06:49:53.028Z,96791.44
2023-05-04T06:52:23.688Z,96752.91
2023-05-04T06:54:52.041Z,96703.03
2023-05-04T06:57:22.476Z,96800.53
2023-05-04T06:59:52.557Z,96801.31
2023-05-04T07:02:22.746Z,96788.88
2023-05-04T07:04:53.945Z,96774.34
2023-05-04T07:07:22.208Z,96799.16
2023-05-04T07:09:50.787Z,96792.13
2023-05-04T07:12:19.819Z,96799.75
2023-05-04T07:14:49.275Z,96788.19
2023-05-04T07:17:21.443Z,96786.59
2023-05-04T07:19:52.786Z,96759.31
2023-05-04T07:22:24.663Z,96791.84
2023-05-04T07:24:56.745Z,96786.88
2023-05-04T07:27:28.287Z,96798.88
2023-05-04T07:29:59.653Z,96783.31
2023-05-04T07:32:30.923Z,96752.94
2023-05-04T07:35:00.405Z,96791.41
2023-05-04T07:37:36.745Z,96785.19
2023-05-04T07:40:07.841Z,96790.63
2023-05-04T07:42:36.183Z,96796.16
2023-05-04T07:45:08.629Z,96794.41
2023-05-04T07:47:37.202Z,96791.88
2023-05-04T07:50:08.462Z,96789.13
2023-05-04T07:52:38.342Z,96792.16
2023-05-04T07:55:08.210Z,96782.38
2023-05-04T07:57:40.992Z,96746.28
2023-05-04T08:00:11.406Z,96586.50
2023-05-04T08:02:39.803Z,96782.56
2023-05-04T08:05:08.969Z,96782.13
2023-05-04T08:07:44.512Z,96788.22
2023-05-04T08:10:15.794Z,96777.34
2023-05-04T08:12:46.013Z,96784.31
2023-05-04T08:15:17.130Z,96698.97
2023-05-04T08:17:45.711Z,96773.38
2023-05-04T08:20:14.853Z,96509.84
2023-05-04T08:22:47.646Z,96775.59
2023-05-04T08:25:16.040Z,96769.31
2023-05-04T08:27:46.752Z,96493.81
2023-05-04T08:30:16.001Z,96768.06
2023-05-04T08:32:47.080Z,96766.72
2023-05-04T08:35:20.690Z,96773.22
2023-05-04T08:37:51.691Z,96767.16
2023-05-04T08:40:26.621Z,96740.16
2023-05-04T08:42:59.333Z,96723.84
2023-05-04T08:45:27.446Z,96722.00
2023-05-04T08:47:58.398Z,96676.22
2023-05-04T08:50:30.033Z,96721.97
2023-05-04T08:53:03.843Z,96737.13
2023-05-04T08:55:33.483Z,96735.13
2023-05-04T08:58:03.695Z,96737.91
2023-05-04T09:00:36.837Z,96735.47
2023-05-04T09:03:07.932Z,96729.91
2023-05-04T09:05:39.218Z,96471.88
2023-05-04T09:08:10.640Z,96733.00
2023-05-04T09:10:44.831Z,96721.31
2023-05-04T09:13:16.945Z,96717.09
2023-05-04T09:15:55.324Z,96716.31
2023-05-04T09:18:24.316Z,96712.03
2023-05-04T09:20:58.066Z,96711.91
2023-05-04T09:23:28.846Z,96696.97
2023-05-04T09:25:57.821Z,96713.13
2023-05-04T09:28:37.133Z,96711.53
2023-05-04T09:31:08.469Z,96689.72
2023-05-04T09:33:44.281Z,96705.56
2023-05-04T09:36:21.330Z,96710.63
2023-05-04T09:38:53.236Z,96710.63
2023-05-04T09:41:36.680Z,96718.75
2023-05-04T09:44:06.647Z,96700.25
2023-05-04T09:46:37.722Z,96706.63
2023-05-04T09:49:08.160Z,96684.44
2023-05-04T09:51:36.740Z,96702.06
2023-05-04T09:54:09.391Z,96700.28
2023-05-04T09:56:42.939Z,96707.59
2023-05-04T09:59:11.291Z,96700.88
2023-05-04T10:01:44.709Z,96709.66
2023-05-04T10:04:15.723Z,96705.72
2023-05-04T10:06:45.298Z,96588.19
2023-05-04T10:09:16.065Z,96689.59
2023-05-04T10:11:47.370Z,96655.44
2023-05-04T10:14:15.454Z,96685.31
2023-05-04T10:16:52.226Z,96607.53
2023-05-04T10:19:50.359Z,96681.66
2023-05-04T10:22:35.113Z,96663.50
2023-05-04T10:25:27.503Z,96686.13
2023-05-04T10:28:04.664Z,96676.28
2023-05-04T10:30:32.999Z,96677.91
2023-05-04T10:33:04.533Z,96675.25
2023-05-04T10:35:38.785Z,96670.78
2023-05-04T10:38:07.553Z,96668.31
2023-05-04T10:40:39.705Z,96662.13
2023-05-04T10:43:09.418Z,96664.28
2023-05-04T10:45:41.264Z,96569.84
2023-05-04T10:48:14.078Z,96653.28
2023-05-04T10:50:48.430Z,96546.59
2023-05-04T10:53:26.945Z,96638.06
2023-05-04T10:55:58.735Z,96639.97
2023-05-04T10:58:30.523Z,96637.94
2023-05-04T11:01:03.036Z,96639.41
2023-05-04T11:03:42.814Z,96631.88
2023-05-04T11:06:23.352Z,96599.06
2023-05-04T11:09:12.425Z,96609.91
2023-05-04T11:11:41.623Z,96596.69
2023-05-04T11:14:14.086Z,96589.22
2023-05-04T11:16:41.916Z,96611.56
2023-05-04T11:19:12.573Z,96601.84
2023-05-04T11:21:54.367Z,96576.31
2023-05-04T11:24:23.047Z,96604.63
2023-05-04T11:26:52.807Z,96599.59
2023-05-04T11:29:20.793Z,96592.53
2023-05-04T11:32:00.187Z,96585.00
2023-05-04T11:34:29.370Z,96593.91
2023-05-04T11:36:59.731Z,96588.91
2023-05-04T11:39:28.390Z,96302.09
2023-05-04T11:41:58.867Z,96354.38
2023-05-04T11:44:27.134Z,96583.88
2023-05-04T11:46:56.746Z,96577.91
2023-05-04T11:49:31.055Z,96581.28
2023-05-04T11:52:10.042Z,96573.34
2023-05-04T11:54:38.654Z,96569.03
2023-05-04T11:57:08.625Z,96563.59
2023-05-04T11:59:53.472Z,96568.47
2023-05-04T12:02:25.846Z,96561.13
2023-05-04T12:04:56.585Z,96566.03
2023-05-04T12:07:33.018Z,96559.09
2023-05-04T12:10:01.535Z,96559.63
2023-05-04T12:12:39.112Z,96563.06
2023-05-04T12:15:13.128Z,96554.38
2023-05-04T12:17:42.081Z,96559.44
2023-05-04T12:20:13.200Z,96560.75
2023-05-04T12:22:41.183Z,96524.44
2023-05-04T12:25:13.189Z,96564.59
2023-05-04T12:27:46.102Z,96519.97
2023-05-04T12:30:17.404Z,96519.72
2023-05-04T12:32:49.473Z,96555.69
2023-05-04T12:35:20.822Z,96555.28
2023-05-04T12:37:49.119Z,96554.78
2023-05-04T12:40:27.831Z,96541.63
2023-05-04T12:43:02.010Z,96546.56
2023-05-04T12:45:36.071Z,96542.63
2023-05-04T12:48:07.378Z,96477.81
2023-05-04T12:50:36.043Z,96534.16
2023-05-04T12:53:09.204Z,96531.06
2023-05-04T12:55:37.617Z,96530.59
2023-05-04T12:58:10.284Z,96534.28
2023-05-04T13:00:45.859Z,96499.00
2023-05-04T13:03:19.357Z,96518.63
2023-05-04T13:05:52.900Z,96495.28
2023-05-04T13:08:22.541Z,96491.34
2023-05-04T13:10:50.646Z,96495.16
2023-05-04T13:13:28.788Z,96455.03
2023-05-04T13:15:57.334Z,96489.09
2023-05-04T13:18:40.046Z,96490.75
2023-05-04T13:21:18.333Z,96482.09
2023-05-04T13:23:48.424Z,96482.28
2023-05-04T13:26:20.524Z,96476.59
2023-05-04T13:28:51.742Z,96474.06
2023-05-04T13:31:20.706Z,96472.50
2023-05-04T13:33:50.794Z,96473.72
2023-05-04T13:36:19.267Z,96467.28
2023-05-04T13:38:50.655Z,96467.94
2023-05-04T13:41:19.642Z,96470.16
2023-05-04T13:43:49.677Z,96464.66
2023-05-04T13:46:18.859Z,96468.69
2023-05-04T13:48:55.186Z,96424.91
2023-05-04T13:51:28.818Z,96450.09
2023-05-04T13:53:56.629Z,96455.88
2023-05-04T13:56:28.189Z,96450.78
2023-05-04T13:58:59.844Z,96444.56
2023-05-04T14:01:34.270Z,96438.47
2023-05-04T14:04:08.129Z,96443.63
2023-05-04T14:06:36.897Z,96426.84
2023-05-04T14:09:10.467Z,96425.66
2023-05-04T14:11:48.944Z,96419.91
2023-05-04T14:14:24.609Z,96426.25
2023-05-04T14:16:52.803Z,96408.25
2023-05-04T14:19:30.581Z,96403.66
2023-05-04T14:21:59.139Z,96403.25
2023-05-04T14:24:36.658Z,96402.16
2023-05-04T14:27:04.905Z,96403.25
2023-05-04T14:29:40.059Z,96376.41
2023-05-04T14:32:14.000Z,96392.19
2023-05-04T14:34:42.185Z,96387.34
2023-05-04T14:37:10.231Z,96381.69
2023-05-04T14:39:44.172Z,96390.56
2023-05-04T14:42:23.078Z,96388.09
2023-05-04T14:44:53.953Z,96383.81
2023-05-04T14:47:22.189Z,96389.13
2023-05-04T14:49:54.755Z,96390.31
2023-05-04T14:52:26.905Z,96387.78
2023-05-04T14:54:55.000Z,96391.28
2023-05-04T14:57:30.483Z,96387.31
2023-05-04T15:00:00.888Z,96380.06
2023-05-04T15:02:30.894Z,96381.91
2023-05-04T15:05:07.592Z,96374.97
2023-05-04T15:07:37.212Z,96381.78
2023-05-04T15:10:07.855Z,96290.75
2023-05-04T15:12:41.459Z,96371.38
2023-05-04T15:15:13.091Z,96374.09
2023-05-04T15:17:46.906Z,96372.66
2023-05-04T15:20:15.901Z,96337.09
2023-05-04T15:22:48.976Z,96366.09
2023-05-04T15:25:17.312Z,96365.84
2023-05-04T15:27:45.673Z,96369.28
2023-05-04T15:30:24.299Z,96349.50
2023-05-04T15:32:58.226Z,96379.38
2023-05-04T15:35:28.629Z,96380.84
2023-05-04T15:37:59.592Z,96377.78
2023-05-04T15:40:30.050Z,96373.47
2023-05-04T15:43:14.446Z,96381.84
2023-05-04T15:45:44.640Z,96376.56
2023-05-04T15:48:17.000Z,96376.06
2023-05-04T15:50:49.869Z,96375.72
2023-05-04T15:53:22.088Z,96338.63
2023-05-04T15:55:57.353Z,96377.00
2023-05-04T15:58:25.813Z,96202.16
2023-05-04T16:01:10.727Z,96374.88
2023-05-04T16:03:45.052Z,96381.53
2023-05-04T16:06:13.264Z,96372.56
2023-05-04T16:08:41.513Z,96374.44
2023-05-04T16:11:18.209Z,96336.78
2023-05-04T16:13:46.260Z,96365.34
2023-05-04T16:16:16.130Z,96361.47
2023-05-04T16:18:46.658Z,96363.09
2023-05-04T16:21:21.412Z,96360.22
2023-05-04T16:23:59.896Z,96366.41
2023-05-04T16:26:28.047Z,96357.19
2023-05-04T16:28:56.716Z,96356.38
2023-05-04T16:31:26.776Z,96357.56
2023-05-04T16:33:55.929Z,96352.88
2023-05-04T16:36:49.462Z,96353.38
2023-05-04T16:39:18.858Z,96355.06
2023-05-04T16:41:51.089Z,96357.78
2023-05-04T16:44:21.312Z,96351.16
2023-05-04T16:46:51.919Z,96352.53
2023-05-04T16:49:24.151Z,96355.63
2023-05-04T16:51:57.618Z,96321.44
2023-05-04T16:54:33.780Z,96353.38
2023-05-04T16:57:03.727Z,96360.31
2023-05-04T16:59:31.552Z,96354.34
2023-05-04T17:02:05.379Z,96342.97
2023-05-04T17:04:34.557Z,96350.56
2023-05-04T17:07:03.303Z,96347.31
2023-05-04T17:09:31.578Z,96351.75
2023-05-04T17:12:03.493Z,96352.81
2023-05-04T17:14:35.082Z,96315.78
2023-05-04T17:17:04.978Z,96345.31
2023-05-04T17:19:49.252Z,96258.22
2023-05-04T17:22:22.209Z,96344.06
2023-05-04T17:24:53.439Z,96350.53
2023-05-04T17:27:28.448Z,96346.22
2023-05-04T17:30:02.076Z,96346.81
2023-05-04T17:32:33.720Z,96337.94
2023-05-04T17:35:16.547Z,96340.25
2023-05-04T17:37:55.958Z,96348.00
2023-05-04T17:40:26.112Z,96312.38
2023-05-04T17:42:54.337Z,96354.38
2023-05-04T17:45:22.602Z,96350.91
2023-05-04T17:47:56.856Z,96347.88
2023-05-04T17:50:25.802Z,96353.16
2023-05-04T17:52:59.380Z,96350.13
2023-05-04T17:55:28.626Z,96349.69
2023-05-04T17:57:59.572Z,96359.91
2023-05-04T18:00:38.462Z,96362.03
2023-05-04T18:03:08.635Z,96362.28
2023-05-04T18:05:39.289Z,96369.31
2023-05-04T18:08:10.229Z,96365.38
2023-05-04T18:10:39.913Z,96370.13
2023-05-04T18:13:08.645Z,96376.94
2023-05-04T18:15:37.467Z,96371.78
2023-05-04T18:18:18.988Z,96375.03
2023-05-04T18:20:49.654Z,96346.31
2023-05-04T18:23:22.123Z,96384.19
2023-05-04T18:25:50.379Z,96366.09
2023-05-04T18:28:21.440Z,96317.94
2023-05-04T18:30:49.832Z,96392.44
2023-05-04T18:33:19.745Z,96399.06
2023-05-04T18:35:50.501Z,96373.13
2023-05-04T18:38:19.701Z,96406.03
2023-05-04T18:40:50.498Z,96404.81
2023-05-04T18:43:19.094Z,96404.44
2023-05-04T18:45:56.146Z,96414.09
2023-05-04T18:48:31.772Z,96412.63
2023-05-04T18:51:08.046Z,96389.13
2023-05-04T18:53:39.195Z,96416.69
2023-05-04T18:56:13.235Z,96422.06
2023-05-04T18:58:41.287Z,96421.72
2023-05-04T19:01:09.382Z,96420.13
2023-05-04T19:03:40.829Z,96354.22
2023-05-04T19:06:10.720Z,96426.91
2023-05-04T19:08:45.090Z,96428.69
2023-05-04T19:11:18.484Z,96427.69
2023-05-04T19:14:03.088Z,96427.09
2023-05-04T19:16:31.261Z,96435.97
2023-05-04T19:19:04.132Z,96439.09
2023-05-04T19:21:32.177Z,96450.59
2023-05-04T19:24:06.456Z,96457.69
2023-05-04T19:26:34.757Z,96426.72
2023-05-04T19:29:03.004Z,96449.47
2023-05-04T19:31:33.997Z,96455.69
2023-05-04T19:34:04.934Z,96450.88
2023-05-04T19:36:34.710Z,96454.47
2023-05-04T19:39:05.739Z,96455.72
2023-05-04T19:41:36.424Z,96425.56
2023-05-04T19:44:10.387Z,96458.09
2023-05-04T19:46:42.918Z,96461.09
2023-05-04T19:49:14.121Z,96467.28
2023-05-04T19:51:42.577Z,96468.38
2023-05-04T19:54:15.176Z,95446.84
2023-05-04T19:56:43.185Z,96375.28
2023-05-04T19:59:11.574Z,96473.31
2023-05-04T20:01:39.706Z,96466.47
2023-05-04T20:04:08.742Z,96476.88
2023-05-04T20:06:43.502Z,96474.78
2023-05-04T20:09:12.026Z,96477.47
2023-05-04T20:11:41.499Z,96475.28
2023-05-04T20:14:14.065Z,96477.84
2023-05-04T20:16:45.139Z,96478.47
2023-05-04T20:19:21.554Z,96476.88
2023-05-04T20:21:55.788Z,96435.41
2023-05-04T20:24:28.701Z,96471.50
2023-05-04T20:26:56.913Z,96423.88
2023-05-04T20:29:25.049Z,96474.25
2023-05-04T20:31:53.568Z,96477.94
2023-05-04T20:34:28.520Z,96471.75
2023-05-04T20:37:00.840Z,96467.66
2023-05-04T20:39:29.302Z,96471.91
2023-05-04T20:42:00.253Z,96476.19
2023-05-04T20:44:28.407Z,96476.03
2023-05-04T20:46:57.953Z,96461.81
2023-05-04T20:49:38.637Z,96479.50
2023-05-04T20:52:11.413Z,96485.97
2023-05-04T20:54:40.469Z,96480.31
2023-05-04T20:57:09.031Z,96469.84
2023-05-04T20:59:47.122Z,96482.50
2023-05-04T21:02:18.725Z,96480.91
2023-05-04T21:04:50.111Z,96473.34
2023-05-04T21:07:22.746Z,96472.41
2023-05-04T21:09:53.828Z,96470.31
2023-05-04T21:12:22.120Z,96471.44
2023-05-04T21:14:53.187Z,96458.66
2023-05-04T21:17:21.519Z,96462.59
2023-05-04T21:19:52.909Z,96462.75
2023-05-04T21:22:26.560Z,96433.69
2023-05-04T21:24:57.789Z,96460.41
2023-05-04T21:27:26.562Z,96464.34
2023-05-04T21:29:57.392Z,96454.38
2023-05-04T21:32:27.728Z,96474.44
2023-05-04T21:35:01.655Z,96462.59
2023-05-04T21:37:31.428Z,96465.13
2023-05-04T21:39:59.566Z,96465.16
2023-05-04T21:42:27.998Z,96465.28
2023-05-04T21:44:56.279Z,96458.53
2023-05-04T21:47:28.050Z,96457.22
2023-05-04T21:49:56.074Z,96449.50
2023-05-04T21:52:25.593Z,96464.97
2023-05-04T21:54:57.767Z,96464.66
2023-05-04T21:57:31.541Z,96466.06
2023-05-04T22:00:19.585Z,96468.22
2023-05-04T22:02:50.166Z,96464.94
2023-05-04T22:05:18.507Z,96453.38
2023-05-04T22:07:52.382Z,96468.44
2023-05-04T22:10:22.490Z,96443.28
2023-05-04T22:12:50.957Z,96462.97
2023-05-04T22:15:19.420Z,96464.34
2023-05-04T22:17:48.826Z,96461.66
2023-05-04T22:20:18.469Z,96467.81
2023-05-04T22:22:47.888Z,96399.94
2023-05-04T22:25:16.082Z,96464.44
2023-05-04T22:27:49.438Z,96460.72
2023-05-04T22:30:17.963Z,96465.56
2023-05-04T22:32:46.815Z,96465.56
2023-05-04T22:35:17.610Z,96469.16
2023-05-04T22:37:46.297Z,96434.47
2023-05-04T22:40:17.485Z,96473.28
2023-05-04T22:42:51.658Z,96476.16
2023-05-04T22:45:24.626Z,96473.03
2023-05-04T22:47:57.358Z,96472.75
2023-05-04T22:50:26.170Z,96477.72
2023-05-04T22:52:56.135Z,96479.84
2023-05-04T22:55:24.532Z,96480.66
2023-05-04T22:57:57.391Z,96481.94
2023-05-04T23:00:30.682Z,96485.22
2023-05-04T23:03:01.888Z,96479.91
2023-05-04T23:05:31.280Z,96436.22
2023-05-04T23:08:00.609Z,96462.75
2023-05-04T23:10:32.117Z,96490.47
2023-05-04T23:13:02.677Z,96485.34
2023-05-04T23:15:31.602Z,96494.81
2023-05-04T23:18:07.328Z,96522.66
2023-05-04T23:20:35.850Z,96442.88
2023-05-04T23:23:03.918Z,96503.75
2023-05-04T23:25:33.180Z,96511.84
2023-05-04T23:28:02.933Z,96470.53
2023-05-04T23:30:31.260Z,96506.84
2023-05-04T23:33:01.627Z,96502.28
2023-05-04T23:35:32.962Z,96502.75
2023-05-04T23:38:04.158Z,96499.69
2023-05-04T23:40:34.485Z,96502.53
2023-05-04T23:43:19.465Z,96499.28
2023-05-04T23:45:47.921Z,96499.84
2023-05-04T23:48:24.980Z,96492.94
2023-05-04T23:50:54.241Z,96497.44
2023-05-04T23:53:26.443Z,96478.09
2023-05-04T23:56:07.575Z,96366.38
2023-05-04T23:58:39.638Z,96430.59
